Tiszafured, Hungary
Current Conditions -  °F | °C
As of 5:45 PM on Saturday 22 Nov 2014 (Local Time) from LHDC Reporting Station
Overcast Overcast  
Wind Chill: 41°   Ceiling: 8300
Heat Index: 41°   Visibility: 6mi
Dew Point: 36°   Wind: 1mph
Humidity: 81%   Direction: 110°ESE
Pressure: 30.36"   Gusts: NA
Location:  47.62°N, 20.76°E
Report Text: LHDC 221545Z 11001KT 9999 SCT033 OVC083 05/02 Q1028 NOSIG
Loading
Personal Weather Stations






























Interactive Weather Map New forecast layout! Learn more

10-Day Weather Forecast

Advertisements
Track Severe Weather on mobile